Time;durP1;ratioP1;P1;durP2;ratioP2;P2;SDS_P1;SDS_P2;PMS_P1;PMS_P2;Temp;Humidity;BMP_temperature;BMP_pressure;BME280_temperature;BME280_humidity;BME280_pressure;Samples;Min_cycle;Max_cycle;Signal;HPM_P1;HPM_P2
2021/12/13 00:02:08;;;;;;;5.75;3.70;;;;;;;-140.05;100.00;61859.38;5043295;28;20564;-62
2021/12/13 00:04:54;;;;;;;4.68;3.72;;;;;;;-140.05;100.00;61859.38;5051808;28;20232;-65
2021/12/13 00:07:29;;;;;;;4.63;3.63;;;;;;;-140.05;100.00;61859.38;5039147;28;20201;-63
2021/12/13 00:10:03;;;;;;;6.65;3.30;;;;;;;-140.05;100.00;61859.38;5041152;28;20682;-62
2021/12/13 00:12:35;;;;;;;4.90;4.00;;;;;;;-140.05;100.00;61859.38;5036878;28;20212;-63
2021/12/13 00:15:09;;;;;;;4.82;3.85;;;;;;;-140.05;100.00;61859.38;5042876;28;20208;-62
2021/12/13 00:17:40;;;;;;;4.38;3.35;;;;;;;-140.05;100.00;61859.38;5042286;28;20212;-61
2021/12/13 00:20:36;;;;;;;4.45;3.72;;;;;;;-140.05;100.00;61859.38;5051342;28;20205;-63
2021/12/13 00:23:33;;;;;;;4.88;3.50;;;;;;;-140.05;100.00;61859.38;5027906;28;20561;-62
2021/12/13 00:26:04;;;;;;;4.65;3.80;;;;;;;-140.05;100.00;61859.38;5037920;28;20200;-63
2021/12/13 00:28:36;;;;;;;4.50;3.58;;;;;;;-140.05;100.00;61859.38;5041839;28;20292;-61
2021/12/13 00:31:28;;;;;;;4.85;3.28;;;;;;;-140.05;100.00;61859.38;5043026;28;20599;-63
2021/12/13 00:34:13;;;;;;;4.13;3.50;;;;;;;-140.05;100.00;61859.38;5051068;28;20204;-62
2021/12/13 00:36:40;;;;;;;3.50;3.05;;;;;;;-140.05;100.00;61859.38;5041472;28;20204;-64
2021/12/13 00:39:27;;;;;;;4.45;3.38;;;;;;;-140.05;100.00;61859.38;5039992;28;20665;-62
2021/12/13 00:41:55;;;;;;;4.78;3.20;;;;;;;-140.05;100.00;61859.38;5039434;28;20204;-62
2021/12/13 00:44:51;;;;;;;4.10;3.33;;;;;;;-140.05;100.00;61859.38;5039349;28;20211;-62
2021/12/13 00:47:25;;;;;;;4.15;3.10;;;;;;;-140.05;100.00;61859.38;5022139;28;20213;-61
2021/12/13 00:49:58;;;;;;;4.03;3.00;;;;;;;-140.05;100.00;61859.38;5031580;28;20205;-63
2021/12/13 00:52:30;;;;;;;4.80;3.17;;;;;;;-140.05;100.00;61859.38;5026349;28;20551;-62
2021/12/13 00:54:58;;;;;;;4.30;3.40;;;;;;;-140.05;100.00;61859.38;5031873;28;20743;-62
2021/12/13 00:57:31;;;;;;;3.70;2.78;;;;;;;-140.05;100.00;61859.38;5040211;28;20212;-63
2021/12/13 01:00:14;;;;;;;4.78;3.30;;;;;;;-140.05;100.00;61859.38;5038865;28;20852;-62
2021/12/13 01:02:47;;;;;;;4.53;3.17;;;;;;;-140.05;100.00;61859.38;5031335;28;20535;-62
2021/12/13 01:05:26;;;;;;;3.75;2.97;;;;;;;-140.05;100.00;61859.38;5035962;28;20291;-61
2021/12/13 01:08:05;;;;;;;3.17;2.88;;;;;;;-140.05;100.00;61859.38;5029133;28;20196;-63
2021/12/13 01:10:54;;;;;;;3.20;2.90;;;;;;;-140.05;100.00;61859.38;5030443;28;20203;-62
2021/12/13 01:13:31;;;;;;;4.10;3.03;;;;;;;-140.05;100.00;61859.38;5034419;28;20229;-61
2021/12/13 01:16:10;;;;;;;3.50;2.67;;;;;;;-140.05;100.00;61859.38;5041677;28;20212;-62
2021/12/13 01:22:19;;;;;;;3.35;2.85;;;;;;;-140.05;100.00;61859.38;5043471;28;20196;-63
2021/12/13 01:27:40;;;;;;;4.00;2.95;;;;;;;-140.05;100.00;61859.38;5041034;28;20864;-63
2021/12/13 01:30:11;;;;;;;3.67;3.13;;;;;;;-140.05;100.00;61859.38;5038156;28;20200;-62
2021/12/13 01:32:46;;;;;;;3.63;2.95;;;;;;;-140.05;100.00;61859.38;5040239;28;20286;-65
2021/12/13 01:35:21;;;;;;;3.28;2.97;;;;;;;-140.05;100.00;61859.38;5050808;28;20235;-62
2021/12/13 01:37:53;;;;;;;4.22;3.17;;;;;;;-140.05;100.00;61859.38;5050434;28;20254;-62
2021/12/13 01:40:27;;;;;;;4.38;3.40;;;;;;;-140.05;100.00;61859.38;5050982;28;20199;-62
2021/12/13 01:43:00;;;;;;;3.40;3.00;;;;;;;-140.05;100.00;61859.38;5049999;28;20184;-62
2021/12/13 01:45:30;;;;;;;4.30;3.58;;;;;;;-140.05;100.00;61859.38;5038503;28;20999;-62
2021/12/13 01:47:59;;;;;;;4.38;3.30;;;;;;;-140.05;100.00;61859.38;5040855;28;20567;-61
2021/12/13 01:50:31;;;;;;;4.40;3.42;;;;;;;-140.05;100.00;61859.38;5041494;28;20203;-63
2021/12/13 01:53:00;;;;;;;3.33;3.03;;;;;;;-140.05;100.00;61859.38;5038438;28;20193;-60
2021/12/13 01:55:37;;;;;;;4.00;3.33;;;;;;;-140.05;100.00;61859.38;5040456;28;20228;-63
2021/12/13 01:59:03;;;;;;;4.82;3.45;;;;;;;-140.05;100.00;61859.38;5037903;28;20224;-64
2021/12/13 02:01:09;;;;;;;4.90;3.45;;;;;;;-140.05;100.00;61859.38;5036510;28;20675;-61
2021/12/13 02:04:07;;;;;;;4.38;3.22;;;;;;;-140.05;100.00;61859.38;5041160;28;20230;-62
2021/12/13 02:06:42;;;;;;;5.53;3.22;;;;;;;-140.05;100.00;61859.38;5033341;28;20679;-62
2021/12/13 02:09:25;;;;;;;4.30;3.72;;;;;;;-140.05;100.00;61859.38;5048969;28;20204;-63
2021/12/13 02:11:55;;;;;;;4.70;3.72;;;;;;;-140.05;100.00;61859.38;5050205;28;20188;-63
2021/12/13 02:14:28;;;;;;;5.10;3.95;;;;;;;-140.05;100.00;61859.38;5050099;28;20595;-62
2021/12/13 02:17:08;;;;;;;4.72;3.67;;;;;;;-140.05;100.00;61859.38;5037766;28;20200;-62
2021/12/13 02:19:40;;;;;;;5.22;4.03;;;;;;;-140.05;100.00;61859.38;5038564;28;20227;-62
2021/12/13 02:22:34;;;;;;;4.07;3.15;;;;;;;-140.05;100.00;61859.38;5037052;28;20993;-63
2021/12/13 02:25:26;;;;;;;4.72;4.00;;;;;;;-140.05;100.00;61859.38;5041089;28;20622;-63
2021/12/13 02:27:58;;;;;;;4.45;3.35;;;;;;;-140.05;100.00;61859.38;5040268;28;20284;-62
2021/12/13 02:30:42;;;;;;;5.57;4.13;;;;;;;-140.05;100.00;61859.38;5047878;28;20196;-61
2021/12/13 02:33:14;;;;;;;5.05;4.18;;;;;;;-140.05;100.00;61859.38;5019554;28;20312;-62
2021/12/13 02:35:47;;;;;;;4.20;3.60;;;;;;;-140.05;100.00;61859.38;5038223;28;20306;-62
2021/12/13 02:38:16;;;;;;;5.15;3.83;;;;;;;-140.05;100.00;61859.38;5040301;28;20543;-63
2021/12/13 02:40:43;;;;;;;4.13;3.35;;;;;;;-140.05;100.00;61859.38;5040280;28;20631;-64
2021/12/13 02:43:14;;;;;;;4.93;3.97;;;;;;;-140.05;100.00;61859.38;5040354;28;20189;-61
2021/12/13 02:45:45;;;;;;;5.20;4.20;;;;;;;-140.05;100.00;61859.38;5049313;28;20206;-61
2021/12/13 02:48:24;;;;;;;4.10;3.70;;;;;;;-140.05;100.00;61859.38;5049099;28;20698;-61
2021/12/13 02:51:00;;;;;;;5.20;3.97;;;;;;;-140.05;100.00;61859.38;5049917;28;20243;-62
2021/12/13 02:53:36;;;;;;;4.03;3.10;;;;;;;-140.05;100.00;61859.38;5035094;28;20303;-64
2021/12/13 02:56:04;;;;;;;5.55;4.45;;;;;;;-140.05;100.00;61859.38;5037289;28;20254;-61
2021/12/13 02:58:33;;;;;;;5.13;4.10;;;;;;;-140.05;100.00;61859.38;5037714;28;20216;-63
2021/12/13 03:01:14;;;;;;;4.63;3.95;;;;;;;-140.05;100.00;61859.38;5040473;28;20223;-62
2021/12/13 03:03:47;;;;;;;5.55;4.03;;;;;;;-140.05;100.00;61859.38;5040221;28;20634;-63
2021/12/13 03:06:19;;;;;;;4.45;3.90;;;;;;;-140.05;100.00;61859.38;5049711;28;20885;-62
2021/12/13 03:08:52;;;;;;;4.85;4.07;;;;;;;-140.05;100.00;61859.38;5048966;28;20224;-62
2021/12/13 03:11:27;;;;;;;4.57;3.38;;;;;;;-140.05;100.00;61859.38;5050410;28;20208;-62
2021/12/13 03:14:00;;;;;;;4.65;3.72;;;;;;;-140.05;100.00;61859.38;5052646;28;20231;-61
2021/12/13 03:16:39;;;;;;;4.53;3.80;;;;;;;-140.05;100.00;61859.38;5053997;28;20200;-62
2021/12/13 03:19:10;;;;;;;5.95;4.43;;;;;;;-140.05;100.00;61859.38;5052314;28;20232;-62
2021/12/13 03:22:14;;;;;;;5.32;4.20;;;;;;;-140.05;100.00;61859.38;5052603;28;20193;-62
2021/12/13 03:24:47;;;;;;;4.53;3.90;;;;;;;-140.05;100.00;61859.38;5024476;28;20582;-62
2021/12/13 03:27:33;;;;;;;5.30;4.05;;;;;;;-140.05;100.00;61859.38;5043304;28;20963;-63
2021/12/13 03:30:03;;;;;;;5.38;4.38;;;;;;;-140.05;100.00;61859.38;5040830;28;20231;-62
2021/12/13 03:32:55;;;;;;;4.80;3.88;;;;;;;-140.05;100.00;61859.38;5048378;28;20209;-64
2021/12/13 03:35:48;;;;;;;6.90;4.28;;;;;;;-140.05;100.00;61859.38;5053126;28;20862;-62
2021/12/13 03:38:22;;;;;;;5.30;4.40;;;;;;;-140.05;100.00;61859.38;5056854;28;20227;-63
2021/12/13 03:40:49;;;;;;;7.68;4.40;;;;;;;-140.05;100.00;61859.38;5045344;28;20972;-62
2021/12/13 03:43:25;;;;;;;4.38;3.17;;;;;;;-140.05;100.00;61859.38;5044798;28;20192;-62
2021/12/13 03:45:56;;;;;;;5.43;4.43;;;;;;;-140.05;100.00;61859.38;5044806;28;20199;-61
2021/12/13 03:48:26;;;;;;;5.53;4.53;;;;;;;-140.05;100.00;61859.38;5037047;28;20250;-62
2021/12/13 03:50:57;;;;;;;6.18;4.47;;;;;;;-140.05;100.00;61859.38;5043425;28;20941;-62
2021/12/13 03:53:31;;;;;;;5.68;4.45;;;;;;;-140.05;100.00;61859.38;5046850;28;20211;-62
2021/12/13 03:56:21;;;;;;;5.93;3.22;;;;;;;-140.05;100.00;61859.38;5051860;28;20735;-62
2021/12/13 03:58:55;;;;;;;7.28;4.90;;;;;;;-140.05;100.00;61859.38;5051468;28;20757;-62
2021/12/13 04:01:34;;;;;;;6.00;4.93;;;;;;;-140.05;100.00;61859.38;5052243;28;20291;-64
2021/12/13 04:04:04;;;;;;;4.82;4.15;;;;;;;-140.05;100.00;61859.38;5052035;28;20239;-61
2021/12/13 04:06:32;;;;;;;5.60;4.03;;;;;;;-140.05;100.00;61859.38;5052874;28;20228;-62
2021/12/13 04:09:00;;;;;;;5.00;3.83;;;;;;;-140.05;100.00;61859.38;5052486;28;20184;-61
2021/12/13 04:11:28;;;;;;;6.00;4.88;;;;;;;-140.05;100.00;61859.38;5052007;28;20198;-63
2021/12/13 04:14:11;;;;;;;6.05;5.13;;;;;;;-140.05;100.00;61859.38;5052152;28;20201;-63
2021/12/13 04:16:50;;;;;;;6.20;4.95;;;;;;;-140.05;100.00;61859.38;5052581;28;20205;-65
2021/12/13 04:19:22;;;;;;;6.90;4.70;;;;;;;-140.05;100.00;61859.38;5051696;28;20613;-64
2021/12/13 04:21:55;;;;;;;5.97;4.38;;;;;;;-140.05;100.00;61859.38;5051725;28;20204;-62
2021/12/13 04:24:33;;;;;;;5.43;4.80;;;;;;;-140.05;100.00;61859.38;5051624;28;20216;-61
2021/12/13 04:27:08;;;;;;;7.45;4.72;;;;;;;-140.05;100.00;61859.38;5051587;28;20216;-62
2021/12/13 04:29:39;;;;;;;6.03;5.40;;;;;;;-140.05;100.00;61859.38;5052181;28;20219;-61
2021/12/13 04:32:27;;;;;;;5.20;4.32;;;;;;;-140.05;100.00;61859.38;5051938;28;20270;-63
2021/12/13 04:34:57;;;;;;;7.18;5.72;;;;;;;-140.05;100.00;61859.38;5051677;28;20193;-62
2021/12/13 04:37:28;;;;;;;6.78;5.70;;;;;;;-140.05;100.00;61859.38;5037350;28;20201;-62
2021/12/13 04:40:05;;;;;;;8.18;6.10;;;;;;;-140.05;100.00;61859.38;5039274;28;20207;-62
2021/12/13 04:42:32;;;;;;;8.63;6.13;;;;;;;-140.05;100.00;61859.38;5040776;28;20234;-61
2021/12/13 04:45:21;;;;;;;7.88;5.97;;;;;;;-140.05;100.00;61859.38;5043021;28;20188;-63
2021/12/13 04:48:01;;;;;;;7.55;6.13;;;;;;;-140.05;100.00;61859.38;5036179;28;20231;-62
2021/12/13 04:50:34;;;;;;;9.23;6.93;;;;;;;-140.05;100.00;61859.38;5039727;28;21005;-63
2021/12/13 04:53:02;;;;;;;7.97;6.32;;;;;;;-140.05;100.00;61859.38;5041949;28;20917;-61
2021/12/13 04:55:36;;;;;;;8.40;6.35;;;;;;;-140.05;100.00;61859.38;5042032;28;20247;-62
2021/12/13 04:58:08;;;;;;;8.05;6.32;;;;;;;-140.05;100.00;61859.38;5042455;28;20211;-63
2021/12/13 05:00:40;;;;;;;8.68;6.63;;;;;;;-140.05;100.00;61859.38;5047669;28;20619;-63
2021/12/13 05:03:10;;;;;;;8.27;6.35;;;;;;;-140.05;100.00;61859.38;5045223;28;20231;-62
2021/12/13 05:05:39;;;;;;;8.95;6.18;;;;;;;-140.05;100.00;61859.38;5050107;28;20203;-61
2021/12/13 05:08:10;;;;;;;7.47;5.95;;;;;;;-140.05;100.00;61859.38;5050366;28;20205;-62
2021/12/13 05:10:37;;;;;;;9.40;6.80;;;;;;;-140.05;100.00;61859.38;5047296;28;20577;-64
2021/12/13 05:13:18;;;;;;;8.77;6.70;;;;;;;-140.05;100.00;61859.38;5050117;28;20197;-62
2021/12/13 05:15:56;;;;;;;7.88;6.43;;;;;;;-140.05;100.00;61859.38;5051385;28;20177;-63
2021/12/13 05:18:29;;;;;;;9.15;6.85;;;;;;;-140.05;100.00;61859.38;5050770;28;20227;-62
2021/12/13 05:21:04;;;;;;;12.35;7.07;;;;;;;-140.05;100.00;61859.38;5031200;28;20283;-62
2021/12/13 05:23:33;;;;;;;8.63;6.57;;;;;;;-140.05;100.00;61859.38;5029895;28;20327;-60
2021/12/13 05:26:06;;;;;;;8.60;6.78;;;;;;;-140.05;100.00;61859.38;5031100;28;20205;-60
2021/12/13 05:28:42;;;;;;;8.25;6.88;;;;;;;-140.05;100.00;61859.38;5030436;28;20203;-61
2021/12/13 05:31:17;;;;;;;9.32;6.90;;;;;;;-140.05;100.00;61859.38;5031028;28;20667;-61
2021/12/13 05:33:50;;;;;;;9.02;7.20;;;;;;;-140.05;100.00;61859.38;5029438;28;20218;-61
2021/12/13 05:36:22;;;;;;;9.13;6.20;;;;;;;-140.05;100.00;61859.38;5031289;28;20300;-62
2021/12/13 05:38:59;;;;;;;8.15;6.70;;;;;;;-140.05;100.00;61859.38;5030042;28;20220;-61
2021/12/13 05:41:29;;;;;;;8.25;6.38;;;;;;;-140.05;100.00;61859.38;5030356;28;20195;-62
2021/12/13 05:43:59;;;;;;;9.70;6.72;;;;;;;-140.05;100.00;61859.38;5030618;28;20586;-60
2021/12/13 05:46:47;;;;;;;11.43;9.15;;;;;;;-140.05;100.00;61859.38;5029438;28;20207;-60
2021/12/13 05:49:25;;;;;;;9.43;7.03;;;;;;;-140.05;100.00;61859.38;5029111;28;20395;-62
2021/12/13 05:52:19;;;;;;;10.63;7.43;;;;;;;-140.05;100.00;61859.38;5030133;28;20193;-60
2021/12/13 05:54:53;;;;;;;21.33;13.68;;;;;;;-140.05;100.00;61859.38;5028194;28;20287;-63
2021/12/13 05:57:34;;;;;;;9.32;7.00;;;;;;;-140.05;100.00;61859.38;5030019;28;20176;-62
2021/12/13 06:00:16;;;;;;;12.90;8.25;;;;;;;-140.05;100.00;61859.38;5029931;28;20550;-61
2021/12/13 06:03:00;;;;;;;8.45;6.40;;;;;;;-140.05;100.00;61859.38;5029349;28;20201;-62
2021/12/13 06:05:39;;;;;;;7.88;6.07;;;;;;;-140.05;100.00;61859.38;5029786;28;20208;-62
2021/12/13 06:08:15;;;;;;;7.57;5.10;;;;;;;-140.05;100.00;61859.38;5042827;28;20729;-63
2021/12/13 06:11:02;;;;;;;14.10;6.82;;;;;;;-140.05;100.00;61859.38;5049665;28;20200;-62
2021/12/13 06:13:46;;;;;;;8.73;6.65;;;;;;;-140.05;100.00;61859.38;5049556;28;20192;-62
2021/12/13 06:16:19;;;;;;;18.75;13.25;;;;;;;-140.05;100.00;61859.38;5050078;28;20287;-58
2021/12/13 06:18:58;;;;;;;50.95;31.17;;;;;;;-140.05;100.00;61859.38;5049356;28;20220;-59
2021/12/13 06:21:40;;;;;;;10.15;7.57;;;;;;;-140.05;100.00;61859.38;5049516;28;20212;-61
2021/12/13 06:24:09;;;;;;;8.15;5.40;;;;;;;-140.05;100.00;61859.38;5049518;28;20273;-62
2021/12/13 06:26:37;;;;;;;9.40;7.10;;;;;;;-140.05;100.00;61859.38;5049986;28;20204;-61
2021/12/13 06:29:07;;;;;;;10.20;7.65;;;;;;;-140.05;100.00;61859.38;5048653;28;20192;-60
2021/12/13 06:31:38;;;;;;;10.18;7.28;;;;;;;-140.05;100.00;61859.38;5047395;28;20177;-60
2021/12/13 06:34:09;;;;;;;9.48;6.38;;;;;;;-140.05;100.00;61859.38;5047316;28;20776;-63
2021/12/13 06:36:49;;;;;;;9.73;6.95;;;;;;;-140.05;100.00;61859.38;5047512;28;20640;-60
2021/12/13 06:39:19;;;;;;;10.90;7.60;;;;;;;-140.05;100.00;61859.38;5049104;28;20600;-59
2021/12/13 06:41:47;;;;;;;11.27;7.93;;;;;;;-140.05;100.00;61859.38;5048925;28;20667;-60
2021/12/13 06:44:43;;;;;;;11.70;7.75;;;;;;;-140.05;100.00;61859.38;5049126;28;20209;-60
2021/12/13 06:47:20;;;;;;;10.85;8.00;;;;;;;-140.05;100.00;61859.38;5048428;28;20215;-60
2021/12/13 06:49:57;;;;;;;9.40;7.45;;;;;;;-140.05;100.00;61859.38;5049994;28;20365;-61
2021/12/13 06:52:33;;;;;;;11.52;7.70;;;;;;;-140.05;100.00;61859.38;5049042;28;20208;-60
2021/12/13 06:55:14;;;;;;;11.20;8.05;;;;;;;-140.05;100.00;61859.38;5049147;28;20703;-62
2021/12/13 06:57:58;;;;;;;12.95;8.50;;;;;;;-140.05;100.00;61859.38;5049271;28;20362;-60
2021/12/13 07:00:32;;;;;;;10.25;7.75;;;;;;;-140.05;100.00;61859.38;5049440;28;20200;-62
2021/12/13 07:03:01;;;;;;;11.23;7.28;;;;;;;-140.05;100.00;61859.38;5048719;28;20196;-62
2021/12/13 07:05:47;;;;;;;11.10;7.65;;;;;;;-140.05;100.00;61859.38;5049008;28;20675;-61
2021/12/13 07:08:23;;;;;;;11.77;6.50;;;;;;;-140.05;100.00;61859.38;5049203;28;20192;-63
2021/12/13 07:10:56;;;;;;;12.80;7.97;;;;;;;-140.05;100.00;61859.38;5049468;28;20199;-60
2021/12/13 07:13:40;;;;;;;13.95;8.25;;;;;;;-140.05;100.00;61859.38;5048895;28;20205;-61
2021/12/13 07:16:12;;;;;;;9.88;5.95;;;;;;;-140.05;100.00;61859.38;5049441;28;20283;-59
2021/12/13 07:19:02;;;;;;;13.73;8.38;;;;;;;-140.05;100.00;61859.38;5049152;28;20278;-60
2021/12/13 07:21:29;;;;;;;12.75;7.88;;;;;;;-140.05;100.00;61859.38;5049132;28;20200;-60
2021/12/13 07:24:08;;;;;;;11.73;7.70;;;;;;;-140.05;100.00;61859.38;5048571;28;20196;-63
2021/12/13 07:26:49;;;;;;;10.80;7.03;;;;;;;-140.05;100.00;61859.38;5049226;28;20223;-60
2021/12/13 07:29:28;;;;;;;10.18;6.50;;;;;;;-140.05;100.00;61859.38;5048770;28;20652;-61
2021/12/13 07:32:19;;;;;;;10.93;7.88;;;;;;;-140.05;100.00;61859.38;5049434;28;20243;-60
2021/12/13 07:34:58;;;;;;;11.10;8.00;;;;;;;-140.05;100.00;61859.38;5048725;28;20199;-60
2021/12/13 07:37:50;;;;;;;10.95;7.53;;;;;;;-140.05;100.00;61859.38;5048894;28;20271;-60
2021/12/13 07:40:40;;;;;;;11.05;7.40;;;;;;;-140.05;100.00;61859.38;5050731;28;20228;-60
2021/12/13 07:43:22;;;;;;;11.30;7.40;;;;;;;-140.05;100.00;61859.38;5049026;28;20187;-60
2021/12/13 07:45:53;;;;;;;13.93;8.20;;;;;;;-140.05;100.00;61859.38;5049201;28;20668;-60
2021/12/13 07:48:29;;;;;;;11.85;7.55;;;;;;;-140.05;100.00;61859.38;5048541;28;20727;-61
2021/12/13 07:51:12;;;;;;;10.35;7.32;;;;;;;-140.05;100.00;61859.38;5049370;28;20192;-62
2021/12/13 07:53:59;;;;;;;12.13;8.40;;;;;;;-140.05;100.00;61859.38;5048748;28;20276;-60
2021/12/13 07:56:26;;;;;;;10.60;7.90;;;;;;;-140.05;100.00;61859.38;5045302;28;20233;-60
2021/12/13 07:59:05;;;;;;;11.43;6.95;;;;;;;-140.05;100.00;61859.38;5051929;28;20228;-61
2021/12/13 08:01:36;;;;;;;10.95;7.72;;;;;;;-140.05;100.00;61859.38;5052774;28;20637;-60
2021/12/13 08:04:08;;;;;;;11.93;8.35;;;;;;;-140.05;100.00;61859.38;5051432;28;20200;-60
2021/12/13 08:06:43;;;;;;;13.85;8.80;;;;;;;-140.05;100.00;61859.38;5052894;28;20584;-61
2021/12/13 08:09:15;;;;;;;11.13;8.40;;;;;;;-140.05;100.00;61859.38;5052362;28;20588;-59
2021/12/13 08:11:52;;;;;;;13.27;7.97;;;;;;;-140.05;100.00;61859.38;5052399;28;20204;-59
2021/12/13 08:14:33;;;;;;;9.25;7.70;;;;;;;-140.05;100.00;61859.38;5051727;28;20287;-60
2021/12/13 08:17:21;;;;;;;12.07;8.40;;;;;;;-140.05;100.00;61859.38;5052129;28;20204;-61
2021/12/13 08:20:11;;;;;;;10.63;7.13;;;;;;;-140.05;100.00;61859.38;5052304;28;20212;-60
2021/12/13 08:22:45;;;;;;;11.00;7.00;;;;;;;-140.05;100.00;61859.38;5051599;28;20177;-63
2021/12/13 08:25:26;;;;;;;9.13;7.13;;;;;;;-140.05;100.00;61859.38;5052092;28;20734;-60
2021/12/13 08:27:58;;;;;;;10.15;7.47;;;;;;;-140.05;100.00;61859.38;5051937;28;20197;-60
2021/12/13 08:30:32;;;;;;;11.65;8.68;;;;;;;-140.05;100.00;61859.38;5052568;28;20232;-61
2021/12/13 08:33:09;;;;;;;11.82;8.73;;;;;;;-140.05;100.00;61859.38;5051420;28;20713;-60
2021/12/13 08:36:01;;;;;;;11.80;8.68;;;;;;;-140.05;100.00;61859.38;5052040;28;20302;-59
2021/12/13 08:38:40;;;;;;;10.40;7.72;;;;;;;-140.05;100.00;61859.38;5051956;28;20198;-58
2021/12/13 08:41:28;;;;;;;12.00;8.07;;;;;;;-140.05;100.00;61859.38;5051762;28;20202;-61
2021/12/13 08:44:00;;;;;;;12.27;7.20;;;;;;;-140.05;100.00;61859.38;5051250;28;20204;-61
2021/12/13 08:46:47;;;;;;;11.55;7.32;;;;;;;-140.05;100.00;61859.38;5051991;28;20687;-62
2021/12/13 08:49:29;;;;;;;11.43;8.00;;;;;;;-140.05;100.00;61859.38;5047692;28;20227;-61
2021/12/13 08:52:13;;;;;;;10.80;6.97;;;;;;;-140.05;100.00;61859.38;5051947;28;20211;-60
2021/12/13 08:54:47;;;;;;;10.63;7.50;;;;;;;-140.05;100.00;61859.38;5051754;28;20215;-61
2021/12/13 08:57:49;;;;;;;10.38;7.22;;;;;;;-140.05;100.00;61859.38;5051246;28;20200;-60
2021/12/13 09:00:24;;;;;;;9.07;6.80;;;;;;;-140.05;100.00;61859.38;5038811;28;20227;-61
2021/12/13 09:03:00;;;;;;;9.80;6.38;;;;;;;-140.05;100.00;61859.38;5050962;28;20568;-62
2021/12/13 09:05:36;;;;;;;9.55;7.32;;;;;;;-140.05;100.00;61859.38;5051234;28;20188;-61
2021/12/13 09:08:12;;;;;;;9.75;6.70;;;;;;;-140.05;100.00;61859.38;5051261;28;20183;-61
2021/12/13 09:10:54;;;;;;;12.18;7.40;;;;;;;-140.05;100.00;61859.38;5051643;28;20212;-60
2021/12/13 09:13:44;;;;;;;9.13;7.20;;;;;;;-140.05;100.00;61859.38;5050866;28;20689;-60
2021/12/13 09:16:17;;;;;;;11.30;7.55;;;;;;;-140.05;100.00;61859.38;5051328;28;20184;-60
2021/12/13 09:18:45;;;;;;;8.25;5.93;;;;;;;-140.05;100.00;61859.38;5050773;28;20295;-61
2021/12/13 09:21:19;;;;;;;9.02;7.22;;;;;;;-140.05;100.00;61859.38;5051494;28;20254;-61
2021/12/13 09:23:51;;;;;;;8.98;6.50;;;;;;;-140.05;100.00;61859.38;5050614;28;20683;-62
2021/12/13 09:26:22;;;;;;;10.68;6.72;;;;;;;-140.05;100.00;61859.38;5051313;28;20236;-60
2021/12/13 09:29:05;;;;;;;10.85;7.07;;;;;;;-140.05;100.00;61859.38;5050807;28;20238;-60
2021/12/13 09:31:38;;;;;;;9.32;6.93;;;;;;;-140.05;100.00;61859.38;5050825;28;20218;-60
2021/12/13 09:34:19;;;;;;;11.07;7.38;;;;;;;-140.05;100.00;61859.38;5050424;28;20201;-60
2021/12/13 09:36:51;;;;;;;8.73;7.30;;;;;;;-140.05;100.00;61859.38;5050898;28;20208;-59
2021/12/13 09:39:28;;;;;;;10.05;6.85;;;;;;;-140.05;100.00;61859.38;5050582;28;20228;-61
2021/12/13 09:42:00;;;;;;;10.80;6.80;;;;;;;-140.05;100.00;61859.38;5050904;28;20631;-60
2021/12/13 09:44:55;;;;;;;9.55;6.88;;;;;;;-140.05;100.00;61859.38;5050222;28;20208;-60
2021/12/13 09:47:30;;;;;;;10.65;8.02;;;;;;;-140.05;100.00;61859.38;5050481;28;20354;-60
2021/12/13 09:49:57;;;;;;;11.25;8.10;;;;;;;-140.05;100.00;61859.38;5050385;28;20242;-60
2021/12/13 09:52:30;;;;;;;10.75;8.02;;;;;;;-140.05;100.00;61859.38;5050437;28;20204;-60
2021/12/13 09:55:17;;;;;;;11.88;9.07;;;;;;;-140.05;100.00;61859.38;5050453;28;20311;-59
2021/12/13 09:57:58;;;;;;;9.02;7.07;;;;;;;-140.05;100.00;61859.38;5050238;28;20196;-60
2021/12/13 10:00:30;;;;;;;10.80;7.65;;;;;;;-140.05;100.00;61859.38;5050350;28;20216;-60
2021/12/13 10:03:05;;;;;;;10.77;6.63;;;;;;;-140.05;100.00;61859.38;5050349;28;20299;-61
2021/12/13 10:05:37;;;;;;;10.85;7.40;;;;;;;-140.05;100.00;61859.38;5050241;28;20212;-61
2021/12/13 10:08:09;;;;;;;10.30;6.78;;;;;;;-140.05;100.00;61859.38;5050141;28;20580;-60
2021/12/13 10:10:43;;;;;;;10.07;5.88;;;;;;;-140.05;100.00;61859.38;5050200;28;20207;-59
2021/12/13 10:13:21;;;;;;;8.57;5.25;;;;;;;-140.05;100.00;61859.38;5049454;28;20208;-61
2021/12/13 10:15:53;;;;;;;9.52;7.50;;;;;;;-140.05;100.00;61859.38;5049796;28;20214;-59
2021/12/13 10:18:25;;;;;;;9.73;7.70;;;;;;;-140.05;100.00;61859.38;5049701;28;20200;-59
2021/12/13 10:21:00;;;;;;;8.48;6.22;;;;;;;-140.05;100.00;61859.38;5049882;28;20296;-59
2021/12/13 10:23:31;;;;;;;10.88;6.80;;;;;;;-140.05;100.00;61859.38;5050034;28;20199;-61
2021/12/13 10:26:18;;;;;;;10.65;7.45;;;;;;;-140.05;100.00;61859.38;5050148;28;20196;-59
2021/12/13 10:28:58;;;;;;;12.45;7.95;;;;;;;-140.05;100.00;61859.38;5049151;28;20184;-61
2021/12/13 10:31:35;;;;;;;11.68;8.23;;;;;;;-140.05;100.00;61859.38;5050508;28;20204;-60
2021/12/13 10:34:09;;;;;;;12.63;8.00;;;;;;;-140.05;100.00;61859.38;5049201;28;20189;-61
2021/12/13 10:36:39;;;;;;;8.63;6.70;;;;;;;-140.05;100.00;61859.38;5050418;28;20212;-61
2021/12/13 10:39:15;;;;;;;10.93;7.43;;;;;;;-140.05;100.00;61859.38;5049407;28;20205;-61
2021/12/13 10:42:10;;;;;;;11.95;7.68;;;;;;;-140.05;100.00;61859.38;5049583;28;20640;-61
2021/12/13 10:44:43;;;;;;;12.20;7.55;;;;;;;-140.05;100.00;61859.38;5049819;28;20201;-60
2021/12/13 10:47:16;;;;;;;8.77;6.57;;;;;;;-140.05;100.00;61859.38;5049390;28;20556;-59
2021/12/13 10:49:48;;;;;;;8.25;6.20;;;;;;;-140.05;100.00;61859.38;5050013;28;20219;-59
2021/12/13 10:52:38;;;;;;;9.57;6.68;;;;;;;-140.05;100.00;61859.38;5049459;28;20193;-60
2021/12/13 10:55:13;;;;;;;12.73;8.70;;;;;;;-140.05;100.00;61859.38;5049980;28;20319;-60
2021/12/13 10:57:47;;;;;;;13.85;9.35;;;;;;;-140.05;100.00;61859.38;5049307;28;20199;-59
2021/12/13 11:00:40;;;;;;;10.77;8.15;;;;;;;-140.05;100.00;61859.38;5049874;28;20274;-59
2021/12/13 11:03:12;;;;;;;11.70;8.48;;;;;;;-140.05;100.00;61859.38;5049253;28;20188;-60
2021/12/13 11:05:42;;;;;;;14.45;8.88;;;;;;;-140.05;100.00;61859.38;5049439;28;20231;-61
2021/12/13 11:08:11;;;;;;;12.70;8.32;;;;;;;-140.05;100.00;61859.38;5049687;28;20200;-62
2021/12/13 11:11:01;;;;;;;9.73;7.65;;;;;;;-140.05;100.00;61859.38;5049128;28;20290;-62
2021/12/13 11:13:34;;;;;;;11.60;8.35;;;;;;;-140.05;100.00;61859.38;5049298;28;20663;-60
2021/12/13 11:16:09;;;;;;;20.75;9.13;;;;;;;-140.05;100.00;61859.38;5049642;28;20582;-61
2021/12/13 11:18:39;;;;;;;10.25;8.38;;;;;;;-140.05;100.00;61859.38;5049100;28;20671;-62
2021/12/13 11:21:17;;;;;;;13.02;8.80;;;;;;;-140.05;100.00;61859.38;5049630;28;20687;-59
2021/12/13 11:23:44;;;;;;;16.48;9.40;;;;;;;-140.05;100.00;61859.38;5051483;28;20583;-60
2021/12/13 11:26:20;;;;;;;10.93;8.15;;;;;;;-140.05;100.00;61859.38;5054906;28;20303;-60
2021/12/13 11:28:50;;;;;;;11.45;7.60;;;;;;;-140.05;100.00;61859.38;5050397;28;20204;-61
2021/12/13 11:31:29;;;;;;;10.30;8.30;;;;;;;-140.05;100.00;61859.38;5049242;28;20239;-59
2021/12/13 11:34:02;;;;;;;11.50;8.38;;;;;;;-140.05;100.00;61859.38;5052243;28;20686;-60
2021/12/13 11:36:49;;;;;;;11.02;7.90;;;;;;;-140.05;100.00;61859.38;5053203;28;20204;-60
2021/12/13 11:39:33;;;;;;;11.10;7.47;;;;;;;-140.05;100.00;61859.38;5052720;28;20278;-60
2021/12/13 11:42:34;;;;;;;12.93;8.43;;;;;;;-140.05;100.00;61859.38;5052462;28;20287;-60
2021/12/13 11:45:31;;;;;;;13.60;8.27;;;;;;;-140.05;100.00;61859.38;5052974;28;20791;-61
2021/12/13 11:48:09;;;;;;;9.95;8.75;;;;;;;-140.05;100.00;61859.38;5052478;28;20193;-61
2021/12/13 11:50:58;;;;;;;13.10;8.80;;;;;;;-140.05;100.00;61859.38;5053010;28;20303;-60
2021/12/13 11:53:42;;;;;;;14.20;8.63;;;;;;;-140.05;100.00;61859.38;5052917;28;20215;-61
2021/12/13 11:56:40;;;;;;;13.38;8.70;;;;;;;-140.05;100.00;61859.38;5052609;28;20243;-60
2021/12/13 11:59:29;;;;;;;12.18;9.32;;;;;;;-140.05;100.00;61859.38;5052374;28;20291;-60